Terminal Aerodrome Forecast
Issued by NWS Des Moines, IA

Home | Current Version | Previous Version | Text Only | Print | Product List | Glossary On
Versions: 1 2 3 4 5 6 7 8 9 10 11 12 13 14 15 16 17 18
000
FTUS43 KDMX 191137
TAFDSM
TAF
KDSM 191137Z 1912/2012 VRB03KT P6SM FEW150
     FM192000 28008KT P6SM SCT100
     FM200300 16004KT P6SM BKN150=

USA.gov is the U.S. government's official web portal to all federal, state and local government web resources and services.